Time;durP1;ratioP1;P1;durP2;ratioP2;P2;SDS_P1;SDS_P2;PMS_P1;PMS_P2;Temp;Humidity;BMP_temperature;BMP_pressure;BME280_temperature;BME280_humidity;BME280_pressure;Samples;Min_cycle;Max_cycle;Signal;HPM_P1;HPM_P2
2021/06/06 00:00:41;;;;;;;1.00;1.00;;;;;;;20.02;82.94;97867.19;5074004;28;20251;-64
2021/06/06 00:03:12;;;;;;;1.20;1.10;;;;;;;19.85;82.88;97835.06;5082947;28;20675;-64
2021/06/06 00:05:44;;;;;;;1.00;1.00;;;;;;;20.02;83.01;97869.75;5080305;28;20225;-64
2021/06/06 00:08:11;;;;;;;1.30;1.20;;;;;;;20.02;83.08;97867.19;5076513;28;20910;-64
2021/06/06 00:10:37;;;;;;;1.40;1.20;;;;;;;20.03;83.08;97870.63;5076699;28;20624;-64
2021/06/06 00:13:04;;;;;;;1.23;1.20;;;;;;;19.88;83.15;97841.94;5075755;28;20286;-64
2021/06/06 00:15:31;;;;;;;1.10;1.10;;;;;;;18.76;82.93;97644.38;5080527;28;20285;-64
2021/06/06 00:17:57;;;;;;;1.00;1.00;;;;;;;19.74;83.06;97817.56;5079146;28;20306;-64
2021/06/06 00:20:27;;;;;;;1.17;1.17;;;;;;;15.83;82.98;97136.88;5078980;28;20593;-63
2021/06/06 00:22:54;;;;;;;1.00;1.00;;;;;;;19.96;83.10;97853.34;5079710;28;20740;-62
2021/06/06 00:25:21;;;;;;;1.00;1.00;;;;;;;20.04;83.13;97866.41;5078102;28;20292;-64
2021/06/06 00:27:48;;;;;;;1.10;1.10;;;;;;;19.34;82.88;97735.16;5077498;28;20315;-64
2021/06/06 00:30:15;;;;;;;1.10;1.10;;;;;;;19.37;82.96;97743.81;5077012;28;20242;-64
2021/06/06 00:32:41;;;;;;;1.10;1.10;;;;;;;20.04;83.15;97861.31;5077222;28;20203;-64
2021/06/06 00:35:09;;;;;;;1.17;1.07;;;;;;;19.20;82.97;97713.31;5085524;28;20689;-65
2021/06/06 00:37:35;;;;;;;1.10;1.10;;;;;;;19.71;82.97;97803.00;5066902;28;20753;-64
2021/06/06 00:40:04;;;;;;;1.07;1.07;;;;;;;19.98;82.86;97856.81;5078566;28;20660;-64
2021/06/06 00:42:31;;;;;;;1.03;1.03;;;;;;;20.04;82.68;97858.75;5081195;28;20253;-65
2021/06/06 00:44:57;;;;;;;2.40;0.90;;;;;;;19.96;82.69;97844.00;5080897;28;20231;-64
2021/06/06 00:47:28;;;;;;;1.27;1.10;;;;;;;19.45;82.46;97762.81;5079890;28;20310;-63
2021/06/06 00:49:56;;;;;;;1.17;1.13;;;;;;;17.52;82.55;97458.38;5081358;28;20239;-64
2021/06/06 00:52:22;;;;;;;1.27;1.17;;;;;;;19.50;82.69;97763.00;5079156;28;20288;-64
2021/06/06 00:54:50;;;;;;;1.27;1.17;;;;;;;17.48;82.76;97420.97;5047365;28;20240;-65
2021/06/06 00:57:19;;;;;;;1.20;1.10;;;;;;;20.03;82.92;97850.22;5101414;22;20799;-69
2021/06/06 00:59:55;;;;;;;1.10;1.10;;;;;;;20.04;82.94;97851.09;5048163;28;20327;-70
2021/06/06 01:02:21;;;;;;;1.07;1.07;;;;;;;20.05;83.38;97873.25;5052933;28;20232;-70
2021/06/06 01:04:48;;;;;;;1.00;1.00;;;;;;;20.01;83.04;97846.72;5070489;28;20207;-71
2021/06/06 01:07:14;;;;;;;1.13;1.13;;;;;;;20.02;83.21;97840.84;5071580;28;20255;-70
2021/06/06 01:09:41;;;;;;;1.20;1.20;;;;;;;18.61;83.26;97608.09;5072578;28;20227;-69
2021/06/06 01:12:14;;;;;;;1.00;1.00;;;;;;;20.03;83.13;97842.56;5053816;28;20208;-69
2021/06/06 01:14:45;;;;;;;1.13;1.10;;;;;;;19.90;83.16;97817.38;5068433;28;20204;-71
2021/06/06 01:17:35;;;;;;;1.00;1.00;;;;;;;20.03;82.96;97840.00;5071164;28;20258;-70
2021/06/06 01:20:08;;;;;;;1.10;1.10;;;;;;;20.04;82.89;97840.91;5071957;28;20336;-70
2021/06/06 01:22:48;;;;;;;1.17;1.17;;;;;;;20.04;82.94;97839.19;5072086;28;20232;-71
2021/06/06 01:25:23;;;;;;;1.00;1.00;;;;;;;20.01;83.10;97835.69;5068713;28;20195;-71
2021/06/06 01:28:12;;;;;;;1.23;1.13;;;;;;;20.04;83.00;97836.66;5071432;28;20315;-70
2021/06/06 01:30:42;;;;;;;1.00;1.00;;;;;;;20.03;83.08;97832.38;5067580;28;20318;-69
2021/06/06 01:33:11;;;;;;;1.20;1.20;;;;;;;20.04;82.93;97829.00;5054738;28;20220;-70
2021/06/06 01:35:47;;;;;;;1.07;1.07;;;;;;;19.86;82.38;97803.63;5070687;28;20252;-70
2021/06/06 01:38:17;;;;;;;1.10;1.10;;;;;;;20.03;82.89;97827.25;5054728;28;20258;-69
2021/06/06 01:40:44;;;;;;;0.97;0.97;;;;;;;20.04;82.71;97823.03;5069172;28;20774;-70
2021/06/06 01:43:14;;;;;;;1.00;1.00;;;;;;;19.71;82.99;97774.97;5051026;28;20235;-70
2021/06/06 01:46:00;;;;;;;1.10;1.00;;;;;;;20.00;82.81;97816.94;5046487;28;20561;-70
2021/06/06 01:48:27;;;;;;;1.00;1.00;;;;;;;19.84;83.11;97787.38;5060906;28;20226;-70
2021/06/06 01:51:04;;;;;;;1.37;1.27;;;;;;;19.50;82.87;97729.88;5035940;28;20227;-69
2021/06/06 01:53:31;;;;;;;1.20;1.10;;;;;;;19.63;82.82;97750.81;5070385;28;20238;-71
2021/06/06 01:55:59;;;;;;;1.07;1.07;;;;;;;20.02;83.01;97821.28;5048503;28;20298;-70
2021/06/06 01:58:26;;;;;;;1.10;1.10;;;;;;;19.97;83.05;97814.25;5044153;28;20264;-69
2021/06/06 02:01:09;;;;;;;1.10;1.00;;;;;;;19.44;82.89;97716.88;5050792;28;20318;-71
2021/06/06 02:03:39;;;;;;;1.00;1.00;;;;;;;20.02;83.18;97819.53;5065377;28;20216;-69
2021/06/06 02:06:06;;;;;;;1.00;1.00;;;;;;;20.03;82.99;97811.94;5032113;28;20205;-68
2021/06/06 02:08:33;;;;;;;1.00;1.00;;;;;;;19.53;83.26;97725.78;5037119;28;20220;-70
2021/06/06 02:11:02;;;;;;;1.00;1.00;;;;;;;20.02;83.01;97813.63;5031500;28;20240;-70
2021/06/06 02:13:33;;;;;;;1.20;1.20;;;;;;;19.40;82.98;97709.94;5053404;28;20626;-70
2021/06/06 02:16:00;;;;;;;1.10;1.10;;;;;;;19.86;83.14;97785.78;5043488;28;20614;-70
2021/06/06 02:18:27;;;;;;;1.10;1.10;;;;;;;19.49;83.08;97721.38;5060729;28;20659;-70
2021/06/06 02:20:54;;;;;;;1.00;1.00;;;;;;;20.04;83.00;97848.56;5051350;28;20657;-70
2021/06/06 02:23:23;;;;;;;1.07;1.07;;;;;;;18.77;83.01;97624.06;5069760;28;20786;-70
2021/06/06 02:25:53;;;;;;;1.07;1.07;;;;;;;20.05;83.09;97820.53;5051287;28;20732;-69
2021/06/06 02:28:26;;;;;;;1.10;1.10;;;;;;;19.61;83.19;97739.72;5040728;28;20261;-69
2021/06/06 02:31:37;;;;;;;1.10;1.10;;;;;;;20.04;83.12;97813.69;5049580;28;20235;-70
2021/06/06 02:34:19;;;;;;;1.60;1.30;;;;;;;20.04;82.94;97815.38;4990311;28;20202;-70
2021/06/06 02:36:57;;;;;;;2.23;1.30;;;;;;;19.84;82.69;97779.72;5076096;28;20656;-71
2021/06/06 02:39:26;;;;;;;1.10;1.10;;;;;;;20.02;82.72;97813.63;5058851;28;20288;-70
2021/06/06 02:42:04;;;;;;;1.20;1.10;;;;;;;19.85;82.74;97783.16;5058973;28;20284;-70
2021/06/06 02:44:51;;;;;;;1.07;1.07;;;;;;;20.04;82.93;97805.19;5070015;28;20243;-70
2021/06/06 02:47:20;;;;;;;1.67;1.10;;;;;;;20.03;82.80;97806.84;5081180;28;20954;-69
2021/06/06 02:49:46;;;;;;;1.13;1.13;;;;;;;20.03;82.89;97806.84;5049982;28;20699;-70
2021/06/06 02:52:38;;;;;;;1.10;1.10;;;;;;;19.77;82.96;97761.56;5049460;28;20232;-67
2021/06/06 02:55:09;;;;;;;1.07;1.07;;;;;;;20.02;83.23;97800.88;5052470;28;20267;-70
2021/06/06 02:57:35;;;;;;;1.03;1.03;;;;;;;20.02;82.98;97808.53;5056973;28;20232;-67
2021/06/06 03:00:10;;;;;;;1.17;1.10;;;;;;;19.74;83.08;97759.78;5071028;28;20307;-69
2021/06/06 03:02:39;;;;;;;0.93;0.93;;;;;;;18.66;83.02;97568.44;5030647;28;20295;-70
2021/06/06 03:05:07;;;;;;;1.03;1.03;;;;;;;20.03;82.97;97804.31;5061780;28;20284;-70
2021/06/06 03:07:39;;;;;;;1.00;1.00;;;;;;;20.03;83.24;97804.31;5051535;28;20232;-70
2021/06/06 03:10:06;;;;;;;1.10;1.10;;;;;;;20.04;83.18;97805.19;5052069;28;20246;-68
2021/06/06 03:12:33;;;;;;;0.90;0.90;;;;;;;19.90;83.32;97779.97;5049155;28;20283;-69
2021/06/06 03:14:59;;;;;;;1.20;1.10;;;;;;;17.56;82.77;97375.56;5069603;28;20219;-70
2021/06/06 03:17:28;;;;;;;1.10;1.10;;;;;;;20.04;83.01;97807.72;5050755;28;20259;-70
2021/06/06 03:19:56;;;;;;;1.10;1.10;;;;;;;19.97;83.22;97788.75;5038872;28;20236;-70
2021/06/06 03:22:25;;;;;;;1.23;1.20;;;;;;;20.04;83.02;97797.53;5036047;28;20649;-70
2021/06/06 03:25:00;;;;;;;1.00;1.00;;;;;;;19.78;83.52;97773.53;5056655;28;20250;-70
2021/06/06 03:27:28;;;;;;;1.10;1.10;;;;;;;19.46;82.97;97705.09;5061108;28;20291;-70
2021/06/06 03:30:17;;;;;;;1.10;1.00;;;;;;;20.04;83.02;97800.94;5043003;28;20196;-70
2021/06/06 03:32:45;;;;;;;1.10;1.00;;;;;;;20.04;83.02;97798.38;5056138;28;20327;-68
2021/06/06 03:35:11;;;;;;;1.03;1.03;;;;;;;20.04;82.93;97795.81;5057920;28;20242;-70
2021/06/06 03:37:38;;;;;;;1.00;1.00;;;;;;;19.91;82.95;97783.41;5066147;28;20310;-70
2021/06/06 03:40:08;;;;;;;0.80;0.80;;;;;;;20.02;83.00;97797.47;5050761;28;20268;-70
2021/06/06 03:42:35;;;;;;;0.97;0.97;;;;;;;19.67;82.81;97745.06;5079375;28;20200;-69
2021/06/06 03:45:05;;;;;;;1.03;1.03;;;;;;;19.89;82.83;97772.25;5036141;28;20644;-69
2021/06/06 03:47:31;;;;;;;0.97;0.97;;;;;;;19.90;83.09;97774.03;5061576;28;20223;-70
2021/06/06 03:49:58;;;;;;;1.10;1.10;;;;;;;20.02;82.94;97793.22;5065695;28;20610;-71
2021/06/06 03:52:26;;;;;;;0.90;0.90;;;;;;;19.82;82.84;97760.09;5058692;28;20756;-70
2021/06/06 03:54:53;;;;;;;1.00;1.00;;;;;;;19.89;82.99;97762.94;5068544;28;20295;-70
2021/06/06 03:57:21;;;;;;;1.03;1.03;;;;;;;18.76;82.63;97580.72;5035525;28;20266;-70
2021/06/06 03:59:47;;;;;;;1.00;1.00;;;;;;;20.02;83.01;97785.56;5047403;28;20228;-70
2021/06/06 04:02:14;;;;;;;1.00;1.00;;;;;;;20.01;83.15;97779.56;5067589;28;20302;-68
2021/06/06 04:04:40;;;;;;;1.00;1.00;;;;;;;20.03;83.05;97791.53;5067042;28;20246;-70
2021/06/06 04:07:07;;;;;;;1.10;1.10;;;;;;;20.02;82.65;97789.81;5069683;28;20220;-70
2021/06/06 04:09:34;;;;;;;1.00;1.00;;;;;;;20.02;83.03;97782.16;5065376;28;20314;-70
2021/06/06 04:12:00;;;;;;;1.00;1.00;;;;;;;20.03;83.06;97786.44;5069235;28;20678;-70
2021/06/06 04:14:27;;;;;;;1.00;1.00;;;;;;;19.99;83.19;97779.50;5051392;28;20236;-70
2021/06/06 04:16:53;;;;;;;1.03;1.03;;;;;;;19.91;83.02;97758.78;5069251;28;20315;-71
2021/06/06 04:19:20;;;;;;;1.00;1.00;;;;;;;19.98;83.11;97773.50;5049033;28;20205;-70
2021/06/06 04:21:47;;;;;;;1.00;1.00;;;;;;;19.97;83.27;97763.25;5052016;28;20772;-69
2021/06/06 04:24:14;;;;;;;1.33;1.23;;;;;;;19.90;82.94;97748.53;5069784;28;20653;-69
2021/06/06 04:26:40;;;;;;;1.07;1.07;;;;;;;19.46;82.99;97677.94;5051452;28;20651;-70
2021/06/06 04:29:08;;;;;;;1.17;1.10;;;;;;;19.92;83.01;97755.41;5067745;28;20271;-70
2021/06/06 04:31:35;;;;;;;1.00;1.00;;;;;;;19.79;82.93;97734.47;5057272;28;20250;-70
2021/06/06 04:34:02;;;;;;;1.00;1.00;;;;;;;20.01;82.75;97770.19;5050117;28;20239;-70
2021/06/06 04:36:29;;;;;;;1.13;1.13;;;;;;;19.93;82.91;97766.50;5068465;28;20200;-69
2021/06/06 04:38:55;;;;;;;1.00;1.00;;;;;;;19.90;82.83;97756.16;5068087;28;20288;-69
2021/06/06 04:41:22;;;;;;;0.97;0.97;;;;;;;20.03;83.05;97781.34;5062632;28;20315;-69
2021/06/06 04:43:49;;;;;;;0.93;0.93;;;;;;;20.05;82.83;97778.84;5069851;28;20288;-70
2021/06/06 04:46:16;;;;;;;1.20;1.10;;;;;;;19.64;82.88;97713.47;5056050;28;20196;-70
2021/06/06 04:48:44;;;;;;;1.00;1.00;;;;;;;19.64;82.83;97710.91;5067655;28;20613;-69
2021/06/06 04:51:14;;;;;;;1.00;1.00;;;;;;;19.74;82.75;97733.41;5050479;28;20559;-69
2021/06/06 04:53:40;;;;;;;1.00;1.00;;;;;;;20.04;83.08;97779.66;5059181;28;20239;-69
2021/06/06 04:56:09;;;;;;;1.00;1.00;;;;;;;19.85;82.84;97755.13;5068142;28;20243;-70
2021/06/06 04:58:35;;;;;;;0.97;0.97;;;;;;;19.75;82.93;97730.91;5060383;28;20278;-70
2021/06/06 05:01:02;;;;;;;0.90;0.90;;;;;;;19.90;82.82;97753.63;5067864;28;20252;-71
2021/06/06 05:03:29;;;;;;;0.90;0.90;;;;;;;19.64;83.17;97705.81;5066073;28;20209;-70
2021/06/06 05:05:55;;;;;;;1.00;1.00;;;;;;;19.68;82.93;97717.88;5067743;28;20242;-70
2021/06/06 05:08:23;;;;;;;1.00;1.00;;;;;;;19.46;83.07;97679.59;5061901;28;20256;-71
2021/06/06 05:10:50;;;;;;;1.00;1.00;;;;;;;19.91;82.88;97755.34;5073137;28;20266;-70
2021/06/06 05:13:17;;;;;;;0.90;0.90;;;;;;;19.91;83.00;97755.34;5032533;28;20264;-70
2021/06/06 05:15:44;;;;;;;1.10;1.10;;;;;;;19.91;83.04;97756.22;5068341;28;20295;-70
2021/06/06 05:18:11;;;;;;;1.10;1.10;;;;;;;20.05;83.01;97778.84;5054318;28;20339;-72
2021/06/06 05:20:40;;;;;;;1.07;1.07;;;;;;;20.04;82.97;97775.41;5052056;28;20260;-71
2021/06/06 05:23:07;;;;;;;1.20;1.10;;;;;;;19.83;83.22;97744.84;5059083;28;20268;-70
2021/06/06 05:25:34;;;;;;;1.00;1.00;;;;;;;19.93;83.07;97761.41;5027016;28;20212;-71
2021/06/06 05:28:01;;;;;;;1.00;1.00;;;;;;;20.06;82.93;97780.56;5056210;28;20316;-69
2021/06/06 05:30:30;;;;;;;1.10;1.10;;;;;;;19.92;82.94;97754.53;5057634;28;20753;-68
2021/06/06 05:32:56;;;;;;;1.37;1.10;;;;;;;20.04;82.88;97777.97;5026572;28;20761;-70
2021/06/06 05:35:25;;;;;;;0.90;0.90;;;;;;;20.05;82.76;97781.41;5044093;28;20206;-70
2021/06/06 05:37:52;;;;;;;1.00;1.00;;;;;;;19.70;82.64;97723.91;5054500;28;20319;-69
2021/06/06 05:40:19;;;;;;;1.00;1.00;;;;;;;19.98;83.03;97778.59;5062290;28;20278;-70
2021/06/06 05:42:45;;;;;;;0.90;0.90;;;;;;;19.91;82.93;97768.09;5043350;28;20196;-69
2021/06/06 05:45:13;;;;;;;1.10;1.10;;;;;;;19.91;82.83;97761.34;5054952;28;20258;-69
2021/06/06 05:47:40;;;;;;;1.00;1.00;;;;;;;19.36;82.89;97673.25;5026938;28;20307;-69
2021/06/06 05:50:07;;;;;;;1.10;1.10;;;;;;;20.04;83.05;97782.22;5026548;28;20208;-71
2021/06/06 05:52:34;;;;;;;1.00;1.00;;;;;;;20.04;82.92;97784.78;5056878;28;20295;-70
2021/06/06 05:55:00;;;;;;;1.37;1.10;;;;;;;19.81;83.04;97743.06;5065853;28;20636;-69
2021/06/06 05:57:27;;;;;;;1.00;1.00;;;;;;;19.37;83.08;97676.69;5039393;28;20232;-71
2021/06/06 05:59:54;;;;;;;2.00;1.03;;;;;;;19.98;83.40;97777.72;5054430;28;20215;-71
2021/06/06 06:02:20;;;;;;;1.13;1.13;;;;;;;19.84;82.82;97750.84;5054695;28;20265;-70
2021/06/06 06:04:47;;;;;;;1.03;1.03;;;;;;;19.53;82.90;97700.28;5055442;28;20295;-69
2021/06/06 06:07:13;;;;;;;3.00;1.10;;;;;;;20.04;82.74;97783.06;5037911;28;20375;-72
2021/06/06 06:09:40;;;;;;;1.00;1.00;;;;;;;19.51;82.92;97690.84;5053989;28;20212;-70
2021/06/06 06:12:07;;;;;;;1.00;1.00;;;;;;;19.89;83.13;97749.31;5036083;28;20263;-69
2021/06/06 06:14:34;;;;;;;1.00;1.00;;;;;;;19.53;82.66;97695.19;5039319;28;20219;-70
2021/06/06 06:17:00;;;;;;;1.10;1.10;;;;;;;19.81;83.07;97731.16;5055683;28;20779;-68
2021/06/06 06:19:27;;;;;;;2.03;1.00;;;;;;;19.72;83.17;97723.16;5066312;28;20363;-71
2021/06/06 06:21:54;;;;;;;1.13;1.07;;;;;;;20.06;83.29;97778.03;5047641;28;20250;-70
2021/06/06 06:24:20;;;;;;;1.30;1.13;;;;;;;19.83;83.38;97739.75;5063049;28;20510;-69
2021/06/06 06:26:47;;;;;;;3.63;1.10;;;;;;;19.50;83.30;97684.88;5048299;28;20240;-69
2021/06/06 06:29:14;;;;;;;1.37;1.27;;;;;;;19.93;83.29;97756.28;5064180;28;20504;-69
2021/06/06 06:31:40;;;;;;;1.63;1.40;;;;;;;19.63;83.58;97699.84;5065517;28;20243;-70
2021/06/06 06:34:07;;;;;;;1.10;1.10;;;;;;;19.94;83.19;97752.91;5066834;28;20678;-69
2021/06/06 06:36:33;;;;;;;1.13;1.10;;;;;;;19.91;83.04;97758.78;5047722;28;20295;-69
2021/06/06 06:39:00;;;;;;;1.17;1.07;;;;;;;19.99;83.27;97771.84;5065329;28;20220;-70
2021/06/06 06:41:28;;;;;;;1.37;1.27;;;;;;;19.58;83.19;97698.81;5047344;28;20244;-69
2021/06/06 06:43:55;;;;;;;1.37;1.10;;;;;;;19.92;83.19;97757.97;5050573;28;20254;-69
2021/06/06 06:46:22;;;;;;;1.10;1.10;;;;;;;18.81;83.06;97587.75;5033367;28;20204;-69
2021/06/06 06:48:49;;;;;;;1.17;1.10;;;;;;;20.06;83.34;97780.56;5066562;28;20228;-70
2021/06/06 06:51:16;;;;;;;4.03;1.50;;;;;;;20.05;82.93;97781.41;5066722;28;20235;-69
2021/06/06 06:53:43;;;;;;;1.70;1.13;;;;;;;19.91;83.29;97760.44;5066709;28;20239;-70
2021/06/06 06:56:09;;;;;;;1.10;1.10;;;;;;;20.05;82.63;97787.38;5042915;28;20657;-70
2021/06/06 06:58:36;;;;;;;2.57;1.20;;;;;;;19.66;80.13;97717.81;5064711;28;20675;-68
2021/06/06 07:01:02;;;;;;;1.40;1.30;;;;;;;19.55;80.83;97698.69;5038913;28;20373;-69
2021/06/06 07:03:30;;;;;;;3.87;1.30;;;;;;;19.54;81.31;97701.19;5050604;28;20200;-69
2021/06/06 07:05:58;;;;;;;1.27;1.17;;;;;;;18.56;81.40;97534.09;5059571;28;20208;-70
2021/06/06 07:08:28;;;;;;;1.23;1.10;;;;;;;19.69;81.99;97728.13;5066601;28;20643;-69
2021/06/06 07:10:54;;;;;;;1.23;1.13;;;;;;;19.57;82.15;97707.25;5049459;28;20235;-70
2021/06/06 07:13:21;;;;;;;1.27;1.17;;;;;;;19.82;82.45;97742.25;5065790;28;20588;-70
2021/06/06 07:15:48;;;;;;;1.53;1.20;;;;;;;19.96;82.83;97775.13;5049420;28;20232;-69
2021/06/06 07:18:20;;;;;;;1.43;1.30;;;;;;;19.97;82.86;97776.00;5057215;28;20319;-70
2021/06/06 07:20:51;;;;;;;2.10;1.30;;;;;;;19.81;83.81;97743.91;5054726;28;20655;-69
2021/06/06 07:23:18;;;;;;;2.10;1.30;;;;;;;19.72;84.58;97729.94;5051201;28;20955;-72
2021/06/06 07:25:45;;;;;;;1.70;1.30;;;;;;;20.05;84.62;97778.84;5065820;28;20511;-69
2021/06/06 07:28:17;;;;;;;1.43;1.30;;;;;;;20.06;81.81;97781.47;5064278;28;20254;-69
2021/06/06 07:30:49;;;;;;;7.50;1.40;;;;;;;19.85;82.76;97739.81;5035113;28;20201;-70
2021/06/06 07:33:22;;;;;;;1.90;1.27;;;;;;;19.85;82.16;97740.69;5048725;28;20204;-68
2021/06/06 07:35:49;;;;;;;3.80;1.30;;;;;;;20.06;82.45;97775.47;5043873;28;20581;-70
2021/06/06 07:38:16;;;;;;;2.70;1.30;;;;;;;20.18;83.10;97793.84;5048778;28;20303;-70
2021/06/06 07:40:44;;;;;;;1.60;1.30;;;;;;;20.13;83.37;97780.06;5063755;28;20283;-70
2021/06/06 07:43:11;;;;;;;1.40;1.23;;;;;;;20.13;83.50;97774.97;5049834;28;20779;-70
2021/06/06 07:45:38;;;;;;;2.80;1.23;;;;;;;20.09;83.81;97770.50;5050458;28;20291;-69
2021/06/06 07:48:05;;;;;;;6.13;1.50;;;;;;;19.63;83.55;97687.09;5037948;28;20294;-70
2021/06/06 07:50:33;;;;;;;1.57;1.27;;;;;;;19.69;83.54;97692.44;5064866;28;20290;-67
2021/06/06 07:53:00;;;;;;;3.30;1.23;;;;;;;20.04;84.22;97751.59;5055315;28;20277;-69
2021/06/06 07:55:27;;;;;;;5.83;1.40;;;;;;;20.25;84.18;97780.53;5056717;28;20589;-69
2021/06/06 07:57:53;;;;;;;1.40;1.30;;;;;;;19.76;84.02;97696.97;5058038;28;20287;-68
2021/06/06 08:00:43;;;;;;;1.97;1.20;;;;;;;19.78;84.01;97699.59;5033516;28;20203;-70
2021/06/06 08:03:09;;;;;;;2.30;1.30;;;;;;;20.27;84.02;97797.63;5051705;28;20240;-68
2021/06/06 08:05:37;;;;;;;1.30;1.20;;;;;;;20.26;83.92;97783.13;5049493;28;20263;-69
2021/06/06 08:08:04;;;;;;;2.70;1.37;;;;;;;19.99;83.86;97738.66;5065410;28;20307;-70
2021/06/06 08:10:31;;;;;;;1.23;1.10;;;;;;;19.79;84.03;97703.88;5062719;28;20227;-69
2021/06/06 08:12:57;;;;;;;1.60;1.20;;;;;;;20.27;83.91;97778.88;5037571;28;20279;-69
2021/06/06 08:15:24;;;;;;;3.50;1.40;;;;;;;20.17;84.24;97762.38;5065714;28;20243;-68
2021/06/06 08:17:51;;;;;;;1.30;1.20;;;;;;;20.16;84.23;97759.75;5066295;28;20306;-68
2021/06/06 08:20:26;;;;;;;2.40;1.23;;;;;;;19.77;83.95;97693.59;5066713;28;20693;-69
2021/06/06 08:22:53;;;;;;;2.87;1.33;;;;;;;20.29;83.98;97782.38;5050797;28;20314;-70
2021/06/06 08:25:20;;;;;;;1.43;1.20;;;;;;;19.79;83.82;97698.75;5069866;28;20276;-69
2021/06/06 08:27:50;;;;;;;1.73;1.30;;;;;;;20.18;84.13;97761.56;5034636;28;20236;-70
2021/06/06 08:30:21;;;;;;;1.43;1.20;;;;;;;20.07;84.09;97742.38;5063211;28;20197;-71
2021/06/06 08:32:48;;;;;;;1.20;1.10;;;;;;;19.81;84.77;97695.44;5049829;28;20459;-69
2021/06/06 08:35:15;;;;;;;1.93;1.40;;;;;;;19.90;84.42;97710.25;5059825;28;20945;-69
2021/06/06 08:37:42;;;;;;;5.90;1.40;;;;;;;20.32;84.44;97783.38;5049680;28;20895;-70
2021/06/06 08:40:10;;;;;;;5.13;1.50;;;;;;;20.19;84.85;97754.78;5077091;28;20227;-69
2021/06/06 08:42:39;;;;;;;3.43;1.50;;;;;;;20.10;84.50;97745.03;5065958;28;20301;-70
2021/06/06 08:45:14;;;;;;;1.27;1.20;;;;;;;20.32;84.85;97785.03;5052194;28;20235;-69
2021/06/06 08:47:41;;;;;;;1.23;1.13;;;;;;;20.11;84.43;97743.38;5065494;28;20223;-69
2021/06/06 08:50:11;;;;;;;2.57;1.20;;;;;;;20.28;84.57;97783.19;5034483;28;20216;-68
2021/06/06 08:52:53;;;;;;;2.70;1.30;;;;;;;20.33;84.44;97792.75;5078477;28;20223;-69
2021/06/06 08:55:31;;;;;;;1.57;1.27;;;;;;;20.34;84.58;97788.53;5068549;28;20208;-69
2021/06/06 08:58:23;;;;;;;1.20;1.10;;;;;;;20.33;84.80;97784.22;5069278;28;20648;-68
2021/06/06 09:00:55;;;;;;;2.60;1.37;;;;;;;20.15;84.61;97758.00;5071769;28;20225;-69
2021/06/06 09:03:24;;;;;;;1.63;1.20;;;;;;;20.17;84.49;97761.50;5065672;28;20277;-69
2021/06/06 09:06:18;;;;;;;1.80;1.27;;;;;;;19.80;84.44;97706.47;5055448;28;20251;-69
2021/06/06 09:08:44;;;;;;;1.30;1.20;;;;;;;20.32;84.61;97792.69;5069958;28;20251;-68
2021/06/06 09:11:13;;;;;;;4.33;1.30;;;;;;;20.07;84.63;97747.47;5053726;28;20997;-69
2021/06/06 09:13:39;;;;;;;4.30;1.30;;;;;;;19.83;84.31;97709.16;5041500;28;20227;-68
2021/06/06 09:16:20;;;;;;;1.50;1.37;;;;;;;20.33;84.46;97794.44;5045934;28;20200;-70
2021/06/06 09:18:48;;;;;;;1.30;1.20;;;;;;;19.95;84.83;97730.03;5068231;28;20713;-69
2021/06/06 09:21:19;;;;;;;2.93;1.20;;;;;;;20.12;84.76;97752.75;5037442;28;20262;-70
2021/06/06 09:23:47;;;;;;;1.57;1.20;;;;;;;20.23;84.97;97774.50;5070709;28;20199;-69
2021/06/06 09:26:16;;;;;;;1.40;1.30;;;;;;;20.31;84.82;97785.88;5080858;28;20224;-70
2021/06/06 09:28:48;;;;;;;1.10;1.10;;;;;;;19.65;84.69;97677.84;5071620;28;20260;-68
2021/06/06 09:31:18;;;;;;;1.33;1.13;;;;;;;20.32;84.86;97787.59;5053471;28;20212;-69
2021/06/06 09:33:54;;;;;;;1.40;1.30;;;;;;;20.31;84.56;97791.81;5071814;28;20196;-69
2021/06/06 09:36:25;;;;;;;2.73;1.20;;;;;;;20.22;84.62;97770.22;5065429;28;20250;-69
2021/06/06 09:39:00;;;;;;;1.47;1.10;;;;;;;20.32;84.63;97787.59;5070682;28;20248;-70
2021/06/06 09:41:33;;;;;;;1.57;1.47;;;;;;;20.31;84.67;97784.16;5072564;28;20206;-68
2021/06/06 09:44:08;;;;;;;1.40;1.30;;;;;;;20.31;84.93;97785.88;5082737;28;20666;-69
2021/06/06 09:46:39;;;;;;;2.10;1.27;;;;;;;20.31;85.45;97790.97;5070552;28;20233;-70
2021/06/06 09:49:25;;;;;;;1.20;1.10;;;;;;;19.98;85.02;97720.75;5071144;28;20656;-69
2021/06/06 09:51:53;;;;;;;1.20;1.10;;;;;;;20.02;85.03;97744.75;5071691;28;20220;-68
2021/06/06 09:54:33;;;;;;;1.33;1.23;;;;;;;20.30;85.24;97781.56;5076341;28;20279;-69
2021/06/06 09:57:02;;;;;;;1.17;1.07;;;;;;;20.24;85.23;97776.22;5070429;28;20267;-69
2021/06/06 09:59:29;;;;;;;1.20;1.20;;;;;;;20.30;85.35;97785.00;5062015;28;20235;-69
2021/06/06 10:02:01;;;;;;;1.13;1.13;;;;;;;20.14;85.12;97758.81;5070312;28;20306;-69
2021/06/06 10:04:32;;;;;;;1.27;1.10;;;;;;;20.30;85.16;97782.44;5053625;28;20204;-69
2021/06/06 10:07:33;;;;;;;2.37;1.40;;;;;;;20.30;85.17;97789.22;5053063;28;20255;-69
2021/06/06 10:10:00;;;;;;;3.50;1.20;;;;;;;20.29;85.14;97790.03;5046126;28;20236;-68
2021/06/06 10:12:32;;;;;;;1.90;1.23;;;;;;;19.94;84.96;97729.97;5046449;28;20223;-69
2021/06/06 10:15:01;;;;;;;1.07;1.07;;;;;;;20.17;85.12;97771.69;5070499;28;20236;-68
2021/06/06 10:17:32;;;;;;;1.57;1.40;;;;;;;20.23;85.33;97779.59;5070232;28;20255;-71
2021/06/06 10:20:16;;;;;;;1.10;1.00;;;;;;;20.17;85.29;97769.16;5068911;28;20730;-68
2021/06/06 10:22:54;;;;;;;1.67;1.30;;;;;;;20.24;85.17;97789.84;5054153;28;20228;-67
2021/06/06 10:25:26;;;;;;;1.17;1.10;;;;;;;20.00;85.14;97737.84;5066771;28;20287;-68
2021/06/06 10:27:59;;;;;;;1.93;1.20;;;;;;;19.79;85.33;97708.97;5036388;28;20297;-69
2021/06/06 10:30:33;;;;;;;1.53;1.20;;;;;;;20.14;85.00;97767.34;5057255;28;20204;-69
2021/06/06 10:33:23;;;;;;;2.50;1.20;;;;;;;19.91;85.06;97728.19;5076905;28;20196;-68
2021/06/06 10:35:50;;;;;;;2.97;1.33;;;;;;;20.16;85.39;97767.41;5072133;28;20235;-69
2021/06/06 10:38:17;;;;;;;1.53;1.37;;;;;;;20.02;85.04;97741.34;5050190;28;20255;-70
2021/06/06 10:40:45;;;;;;;1.53;1.30;;;;;;;20.19;85.10;97767.53;5069404;28;20315;-68
2021/06/06 10:43:23;;;;;;;1.67;1.20;;;;;;;20.27;84.82;97786.53;5053582;28;20243;-69
2021/06/06 10:46:13;;;;;;;1.33;1.30;;;;;;;20.28;84.84;97811.28;5073237;28;20227;-69
2021/06/06 10:48:49;;;;;;;1.13;1.10;;;;;;;20.09;84.63;97750.06;5064297;28;20227;-69
2021/06/06 10:51:35;;;;;;;2.20;1.20;;;;;;;20.27;84.64;97777.22;5050015;28;20295;-68
2021/06/06 10:54:07;;;;;;;1.00;1.00;;;;;;;20.20;84.53;97764.16;5067507;28;20228;-69
2021/06/06 10:56:46;;;;;;;1.70;1.23;;;;;;;20.27;84.76;97774.66;5063919;28;20218;-68
2021/06/06 10:59:12;;;;;;;1.30;1.20;;;;;;;20.27;84.61;97773.78;5068904;28;20318;-69
2021/06/06 11:01:42;;;;;;;1.53;1.20;;;;;;;20.26;84.44;97780.59;5068795;28;20224;-68
2021/06/06 11:04:28;;;;;;;2.73;1.20;;;;;;;20.26;84.67;97778.03;5067348;28;20220;-68
2021/06/06 11:07:30;;;;;;;1.30;1.20;;;;;;;20.26;84.39;97777.16;5057023;28;20316;-69
2021/06/06 11:10:03;;;;;;;1.20;1.10;;;;;;;20.19;84.72;97758.19;5056062;28;20227;-69
2021/06/06 11:12:33;;;;;;;1.27;1.17;;;;;;;20.02;84.54;97727.72;5085335;28;20821;-69
2021/06/06 11:15:02;;;;;;;2.70;1.10;;;;;;;20.11;84.71;97744.25;5051028;28;20204;-69
2021/06/06 11:17:37;;;;;;;1.23;1.13;;;;;;;20.26;84.71;97772.06;5050260;28;20252;-68
2021/06/06 11:20:17;;;;;;;1.70;1.57;;;;;;;20.26;84.72;97769.50;5067855;28;20298;-69
2021/06/06 11:22:45;;;;;;;1.10;1.10;;;;;;;19.99;84.34;97726.75;5079601;28;20259;-67
2021/06/06 11:25:30;;;;;;;4.43;1.20;;;;;;;20.25;84.73;97765.22;5034926;28;20246;-69
2021/06/06 11:28:01;;;;;;;2.17;1.30;;;;;;;20.18;84.58;97760.66;5069166;28;20259;-68
2021/06/06 11:30:29;;;;;;;1.57;1.27;;;;;;;20.24;84.74;97759.22;5048899;28;20986;-68
2021/06/06 11:33:01;;;;;;;2.87;1.37;;;;;;;20.24;84.58;97759.22;5069457;28;20204;-68
2021/06/06 11:35:29;;;;;;;1.50;1.40;;;;;;;20.25;84.53;97757.56;5068651;28;20200;-68
2021/06/06 11:38:37;;;;;;;1.40;1.30;;;;;;;20.24;84.73;97751.56;5067772;28;20303;-68
2021/06/06 11:41:23;;;;;;;3.80;1.30;;;;;;;19.69;84.64;97661.84;5053436;28;20203;-68
2021/06/06 11:43:56;;;;;;;1.30;1.20;;;;;;;20.24;84.63;97756.69;5063647;28;20252;-69
2021/06/06 11:46:22;;;;;;;1.30;1.20;;;;;;;20.23;84.82;97754.06;5048320;28;20859;-69
2021/06/06 11:49:03;;;;;;;1.37;1.27;;;;;;;20.09;84.72;97725.44;5066880;28;20569;-69